createdAt,value
2022-10-01T00:00:35.568Z,72.32
2022-10-01T00:03:02.093Z,71.81
2022-10-01T00:05:28.562Z,71.50
2022-10-01T00:07:55.009Z,72.29
2022-10-01T00:10:21.458Z,72.38
2022-10-01T00:12:48.976Z,72.96
2022-10-01T00:15:16.865Z,72.38
2022-10-01T00:17:43.673Z,72.83
2022-10-01T00:20:14.773Z,73.04
2022-10-01T00:22:41.494Z,72.83
2022-10-01T00:25:08.169Z,73.17
2022-10-01T00:27:35.810Z,74.21
2022-10-01T00:30:06.454Z,73.27
2022-10-01T00:32:33.184Z,75.41
2022-10-01T00:35:00.526Z,76.93
2022-10-01T00:37:27.077Z,77.08
2022-10-01T00:39:53.546Z,73.76
2022-10-01T00:42:26.834Z,73.87
2022-10-01T00:44:54.064Z,74.14
2022-10-01T00:47:23.425Z,74.06
2022-10-01T00:49:57.452Z,73.73
2022-10-01T00:52:29.954Z,73.98
2022-10-01T00:55:11.880Z,74.16
2022-10-01T00:57:39.710Z,74.98
2022-10-01T01:00:08.988Z,75.07
2022-10-01T01:02:35.732Z,73.88
2022-10-01T01:05:03.012Z,74.76
2022-10-01T01:07:31.643Z,74.50
2022-10-01T01:09:58.930Z,74.28
2022-10-01T01:12:34.131Z,74.80
2022-10-01T01:15:07.290Z,76.59
2022-10-01T01:17:50.847Z,75.67
2022-10-01T01:20:26.474Z,76.10
2022-10-01T01:23:11.411Z,75.66
2022-10-01T01:26:07.083Z,75.11
2022-10-01T01:28:40.456Z,75.24
2022-10-01T01:31:25.164Z,74.87
2022-10-01T01:33:55.537Z,75.33
2022-10-01T01:36:27.485Z,75.20
2022-10-01T01:39:03.837Z,75.08
2022-10-01T01:41:35.403Z,75.06
2022-10-01T01:44:08.643Z,76.96
2022-10-01T01:46:40.245Z,77.51
2022-10-01T01:49:07.807Z,78.11
2022-10-01T01:51:45.496Z,77.01
2022-10-01T01:54:12.475Z,76.39
2022-10-01T01:56:39.085Z,76.26
2022-10-01T01:59:05.834Z,76.72
2022-10-01T02:01:36.130Z,77.77
2022-10-01T02:04:16.039Z,79.34
2022-10-01T02:07:30.620Z,80.37
2022-10-01T02:10:16.839Z,80.58
2022-10-01T02:13:01.828Z,80.66
2022-10-01T02:15:36.071Z,80.24
2022-10-01T02:18:05.227Z,80.30
2022-10-01T02:20:39.688Z,79.13
2022-10-01T02:23:11.261Z,79.51
2022-10-01T02:25:46.622Z,78.02
2022-10-01T02:28:18.237Z,78.83
2022-10-01T02:30:45.798Z,80.13
2022-10-01T02:33:15.287Z,80.15
2022-10-01T02:35:45.090Z,80.14
2022-10-01T02:38:13.951Z,80.04
2022-10-01T02:40:44.077Z,80.07
2022-10-01T02:43:22.804Z,80.53
2022-10-01T02:45:58.547Z,80.16
2022-10-01T02:48:27.193Z,80.52
2022-10-01T02:51:01.098Z,79.34
2022-10-01T02:53:34.975Z,79.67
2022-10-01T02:56:04.400Z,79.64
2022-10-01T02:58:30.987Z,79.44
2022-10-01T03:00:57.465Z,79.53
2022-10-01T03:03:26.046Z,80.05
2022-10-01T03:05:52.869Z,79.38
2022-10-01T03:08:19.479Z,79.57
2022-10-01T03:10:46.833Z,80.00
2022-10-01T03:13:13.753Z,79.77
2022-10-01T03:15:40.270Z,80.09
2022-10-01T03:18:06.732Z,79.53
2022-10-01T03:20:33.186Z,79.00
2022-10-01T03:22:59.655Z,78.90
2022-10-01T03:25:26.354Z,78.28
2022-10-01T03:27:53.121Z,78.02
2022-10-01T03:30:19.626Z,78.03
2022-10-01T03:32:46.027Z,77.40
2022-10-01T03:35:12.856Z,77.04
2022-10-01T03:37:39.330Z,76.71
2022-10-01T03:40:06.453Z,76.70
2022-10-01T03:42:32.856Z,75.99
2022-10-01T03:44:59.363Z,76.22
2022-10-01T03:47:26.126Z,75.92
2022-10-01T03:49:52.579Z,75.76
2022-10-01T03:52:19.114Z,75.54
2022-10-01T03:54:45.576Z,74.79
2022-10-01T03:57:12.010Z,74.27
2022-10-01T03:59:38.444Z,74.26
2022-10-01T04:02:05.063Z,74.20
2022-10-01T04:04:31.602Z,74.17
2022-10-01T04:06:58.061Z,73.68
2022-10-01T04:09:24.631Z,73.37
2022-10-01T04:11:51.051Z,73.26
2022-10-01T04:14:17.663Z,72.60
2022-10-01T04:16:44.150Z,72.47
2022-10-01T04:19:10.579Z,72.24
2022-10-01T04:21:39.013Z,71.74
2022-10-01T04:24:05.620Z,72.16
2022-10-01T04:26:32.211Z,72.21
2022-10-01T04:28:58.663Z,71.91
2022-10-01T04:31:25.244Z,71.45
2022-10-01T04:33:53.972Z,71.71
2022-10-01T04:36:20.813Z,71.86
2022-10-01T04:38:50.188Z,71.56
2022-10-01T04:41:16.656Z,70.78
2022-10-01T04:43:43.125Z,70.73
2022-10-01T04:46:09.611Z,70.70
2022-10-01T04:48:36.110Z,70.07
2022-10-01T04:51:02.585Z,70.53
2022-10-01T04:53:29.221Z,70.37
2022-10-01T04:55:55.695Z,69.87
2022-10-01T04:58:22.194Z,69.77
2022-10-01T05:00:50.248Z,69.29
2022-10-01T05:03:17.835Z,69.06
2022-10-01T05:05:44.466Z,69.14
2022-10-01T05:08:10.920Z,69.15
2022-10-01T05:10:37.419Z,69.17
2022-10-01T05:13:03.891Z,68.77
2022-10-01T05:15:30.880Z,68.36
2022-10-01T05:17:57.385Z,68.79
2022-10-01T05:20:26.618Z,69.15
2022-10-01T05:22:54.665Z,68.91
2022-10-01T05:25:21.131Z,68.67
2022-10-01T05:27:47.591Z,68.47
2022-10-01T05:30:23.936Z,68.59
2022-10-01T05:32:54.216Z,68.90
2022-10-01T05:35:20.684Z,68.69
2022-10-01T05:37:47.234Z,68.71
2022-10-01T05:40:13.761Z,68.65
2022-10-01T05:42:45.649Z,68.71
2022-10-01T05:45:12.111Z,69.55
2022-10-01T05:47:41.183Z,69.32
2022-10-01T05:50:08.524Z,69.75
2022-10-01T05:52:34.930Z,69.42
2022-10-01T05:55:01.374Z,69.52
2022-10-01T05:57:27.806Z,69.76
2022-10-01T05:59:54.260Z,68.76
2022-10-01T06:02:20.801Z,68.64
2022-10-01T06:04:47.579Z,68.71
2022-10-01T06:07:14.011Z,68.28
2022-10-01T06:09:40.466Z,67.84
2022-10-01T06:12:10.611Z,67.83
2022-10-01T06:14:37.045Z,68.87
2022-10-01T06:17:03.515Z,68.87
2022-10-01T06:19:29.935Z,69.35
2022-10-01T06:21:56.341Z,69.46
2022-10-01T06:24:22.746Z,69.45
2022-10-01T06:26:49.158Z,69.55
2022-10-01T06:29:15.602Z,69.93
2022-10-01T06:31:42.046Z,71.29
2022-10-01T06:34:08.657Z,70.96
2022-10-01T06:36:35.108Z,71.34
2022-10-01T06:39:01.637Z,71.55
2022-10-01T06:41:28.114Z,71.88
2022-10-01T06:43:54.567Z,72.81
2022-10-01T06:46:21.116Z,73.08
2022-10-01T06:48:47.655Z,73.42
2022-10-01T06:51:14.077Z,73.61
2022-10-01T06:53:40.540Z,73.30
2022-10-01T06:56:07.977Z,73.34
2022-10-01T06:58:34.512Z,73.44
2022-10-01T07:01:03.769Z,73.67
2022-10-01T07:03:31.201Z,73.85
2022-10-01T07:06:02.863Z,74.89
2022-10-01T07:08:29.495Z,74.34
2022-10-01T07:11:02.422Z,74.01
2022-10-01T07:13:29.326Z,73.59
2022-10-01T07:15:55.743Z,74.06
2022-10-01T07:18:22.210Z,73.71
2022-10-01T07:20:48.647Z,74.39
2022-10-01T07:23:16.194Z,74.61
2022-10-01T07:25:43.668Z,74.55
2022-10-01T07:28:16.868Z,74.24
2022-10-01T07:31:06.905Z,74.49
2022-10-01T07:33:33.723Z,74.84
2022-10-01T07:36:05.488Z,74.59
2022-10-01T07:38:35.283Z,74.40
2022-10-01T07:41:02.856Z,74.98
2022-10-01T07:43:30.938Z,74.31
2022-10-01T07:45:58.198Z,74.71
2022-10-01T07:48:25.837Z,74.70
2022-10-01T07:50:52.890Z,74.91
2022-10-01T07:53:19.828Z,74.75
2022-10-01T07:55:46.313Z,74.65
2022-10-01T07:58:13.225Z,74.58
2022-10-01T08:00:40.004Z,75.20
2022-10-01T08:03:06.638Z,75.39
2022-10-01T08:05:35.303Z,75.16
2022-10-01T08:08:08.633Z,75.57
2022-10-01T08:10:37.446Z,75.82
2022-10-01T08:13:08.283Z,76.14
2022-10-01T08:15:35.595Z,76.72
2022-10-01T08:18:03.490Z,77.32
2022-10-01T08:20:30.455Z,76.85
2022-10-01T08:23:05.171Z,76.88
2022-10-01T08:25:32.199Z,77.08
2022-10-01T08:28:00.201Z,77.43
2022-10-01T08:30:27.634Z,77.99
2022-10-01T08:32:58.517Z,77.77
2022-10-01T08:35:26.095Z,78.30
2022-10-01T08:37:55.423Z,78.37
2022-10-01T08:40:22.810Z,77.77
2022-10-01T08:43:06.126Z,77.81
2022-10-01T08:45:51.445Z,78.23
2022-10-01T08:48:39.595Z,77.42
2022-10-01T08:51:15.978Z,77.47
2022-10-01T08:53:48.191Z,77.38
2022-10-01T08:56:30.903Z,77.20
2022-10-01T08:59:00.336Z,76.94
2022-10-01T09:01:28.362Z,77.51
2022-10-01T09:03:55.705Z,77.41
2022-10-01T09:06:25.485Z,78.08
2022-10-01T09:09:31.148Z,77.63
2022-10-01T09:12:15.575Z,77.46
2022-10-01T09:15:13.680Z,78.20
2022-10-01T09:18:10.366Z,78.22
2022-10-01T09:20:41.742Z,78.84
2022-10-01T09:23:19.034Z,79.68
2022-10-01T09:25:50.175Z,79.58
2022-10-01T09:28:21.628Z,79.46
2022-10-01T09:30:59.550Z,79.36
2022-10-01T09:33:32.141Z,78.96
2022-10-01T09:36:18.742Z,78.72
2022-10-01T09:39:10.314Z,78.37
2022-10-01T09:41:37.163Z,78.56
2022-10-01T09:44:03.885Z,79.09
2022-10-01T09:46:30.368Z,79.23
2022-10-01T09:49:30.975Z,79.91
2022-10-01T09:52:06.231Z,80.78
2022-10-01T09:54:43.058Z,80.91
2022-10-01T09:57:12.905Z,79.99
2022-10-01T10:00:09.764Z,80.11
2022-10-01T10:02:44.631Z,80.92
2022-10-01T10:05:18.030Z,80.00
2022-10-01T10:07:53.338Z,80.69
2022-10-01T10:10:35.495Z,81.34
2022-10-01T10:13:19.453Z,81.83
2022-10-01T10:15:52.360Z,81.69
2022-10-01T10:18:35.563Z,82.27
2022-10-01T10:21:07.852Z,81.67
2022-10-01T10:23:34.573Z,81.38
2022-10-01T10:26:05.073Z,81.58
2022-10-01T10:28:44.618Z,82.23
2022-10-01T10:31:25.252Z,82.31
2022-10-01T10:33:55.498Z,82.55
2022-10-01T10:36:29.853Z,82.14
2022-10-01T10:38:58.279Z,82.72
2022-10-01T10:41:26.591Z,82.73
2022-10-01T10:44:01.089Z,82.43
2022-10-01T10:46:37.611Z,82.35
2022-10-01T10:49:19.254Z,82.44
2022-10-01T10:51:53.755Z,82.33
2022-10-01T10:54:23.117Z,82.37
2022-10-01T10:57:03.547Z,82.13
2022-10-01T10:59:33.086Z,82.86
2022-10-01T11:02:02.029Z,82.22
2022-10-01T11:04:34.550Z,82.66
2022-10-01T11:07:01.645Z,82.17
2022-10-01T11:09:40.184Z,82.43
2022-10-01T11:12:14.641Z,81.97
2022-10-01T11:14:59.129Z,81.79
2022-10-01T11:17:58.597Z,82.06
2022-10-01T11:20:39.087Z,82.04
2022-10-01T11:23:30.917Z,82.06
2022-10-01T11:26:22.307Z,82.31
2022-10-01T11:29:16.783Z,81.97
2022-10-01T11:31:49.608Z,81.40
2022-10-01T11:34:48.655Z,81.69
2022-10-01T11:37:17.817Z,81.70
2022-10-01T11:39:48.111Z,82.13
2022-10-01T11:42:22.181Z,82.27
2022-10-01T11:45:04.430Z,82.43
2022-10-01T11:47:36.702Z,81.47
2022-10-01T11:50:07.527Z,81.59
2022-10-01T11:52:38.448Z,81.87
2022-10-01T11:55:41.567Z,81.37
2022-10-01T11:58:47.540Z,81.48
2022-10-01T12:01:18.734Z,81.47
2022-10-01T12:04:24.189Z,81.01
2022-10-01T12:07:03.049Z,81.11
2022-10-01T12:09:54.956Z,81.90
2022-10-01T12:12:27.836Z,82.30
2022-10-01T12:15:06.964Z,82.33
2022-10-01T12:17:46.806Z,82.13
2022-10-01T12:20:44.279Z,82.47
2022-10-01T12:23:22.048Z,82.28
2022-10-01T12:25:52.179Z,82.41
2022-10-01T12:28:28.405Z,82.00
2022-10-01T12:31:03.552Z,81.44
2022-10-01T12:33:51.233Z,81.47
2022-10-01T12:36:36.561Z,80.56
2022-10-01T12:39:15.480Z,80.96
2022-10-01T12:42:06.767Z,80.80
2022-10-01T12:44:45.782Z,80.40
2022-10-01T12:47:38.308Z,80.67
2022-10-01T12:50:22.805Z,80.69
2022-10-01T12:53:11.194Z,80.82
2022-10-01T12:56:03.009Z,81.13
2022-10-01T12:58:51.135Z,80.77
2022-10-01T13:01:29.565Z,80.44
2022-10-01T13:04:03.145Z,80.21
2022-10-01T13:06:57.610Z,80.60
2022-10-01T13:09:46.565Z,80.25
2022-10-01T13:12:21.955Z,79.76
2022-10-01T13:14:49.023Z,80.43
2022-10-01T13:17:38.643Z,80.28
2022-10-01T13:20:18.402Z,80.31
2022-10-01T13:22:59.798Z,79.93
2022-10-01T13:25:45.707Z,79.98
2022-10-01T13:28:18.846Z,80.49
2022-10-01T13:30:56.151Z,79.62
2022-10-01T13:33:32.047Z,80.51
2022-10-01T13:36:00.735Z,79.86
2022-10-01T13:38:33.086Z,79.91
2022-10-01T13:41:03.080Z,80.04
2022-10-01T13:43:32.220Z,80.01
2022-10-01T13:46:08.923Z,79.49
2022-10-01T13:48:37.827Z,79.60
2022-10-01T13:51:10.663Z,79.61
2022-10-01T13:53:43.133Z,79.84
2022-10-01T13:56:13.014Z,79.52
2022-10-01T13:58:44.515Z,79.72
2022-10-01T14:01:21.362Z,80.28
2022-10-01T14:04:02.611Z,80.13
2022-10-01T14:06:35.417Z,80.19
2022-10-01T14:09:21.566Z,80.52
2022-10-01T14:12:17.647Z,80.50
2022-10-01T14:15:12.179Z,79.99
2022-10-01T14:17:38.843Z,80.72
2022-10-01T14:20:06.037Z,80.22
2022-10-01T14:23:05.285Z,80.36
2022-10-01T14:25:56.711Z,80.35
2022-10-01T14:28:29.211Z,79.82
2022-10-01T14:31:21.361Z,80.11
2022-10-01T14:34:24.921Z,79.81
2022-10-01T14:36:53.823Z,79.52
2022-10-01T14:39:26.422Z,79.97
2022-10-01T14:41:54.552Z,80.05
2022-10-01T14:44:30.059Z,80.03
2022-10-01T14:46:58.936Z,79.53
2022-10-01T14:49:30.650Z,79.65
2022-10-01T14:52:03.547Z,78.86
2022-10-01T14:54:44.665Z,78.82
2022-10-01T14:57:13.100Z,78.73
2022-10-01T14:59:40.677Z,78.09
2022-10-01T15:02:19.644Z,77.94
2022-10-01T15:04:52.117Z,77.67
2022-10-01T15:07:18.780Z,77.95
2022-10-01T15:09:46.652Z,77.18
2022-10-01T15:12:16.051Z,77.61
2022-10-01T15:14:43.682Z,77.53
2022-10-01T15:17:19.243Z,77.18
2022-10-01T15:19:52.143Z,76.39
2022-10-01T15:22:26.933Z,75.97
2022-10-01T15:24:57.104Z,76.66
2022-10-01T15:27:24.637Z,77.07
2022-10-01T15:29:56.224Z,76.81
2022-10-01T15:32:25.308Z,77.21
2022-10-01T15:34:56.198Z,77.02
2022-10-01T15:37:28.595Z,76.65
2022-10-01T15:39:56.031Z,76.79
2022-10-01T15:42:31.499Z,77.13
2022-10-01T15:45:06.944Z,76.69
2022-10-01T15:47:34.011Z,76.67
2022-10-01T15:50:05.065Z,76.33
2022-10-01T15:52:52.989Z,76.33
2022-10-01T15:55:33.745Z,76.88
2022-10-01T15:58:21.322Z,76.41
2022-10-01T16:00:48.583Z,76.29
2022-10-01T16:03:43.383Z,76.63
2022-10-01T16:06:19.779Z,76.90
2022-10-01T16:09:00.303Z,76.74
2022-10-01T16:11:33.780Z,76.04
2022-10-01T16:14:21.159Z,76.30
2022-10-01T16:16:50.478Z,76.10
2022-10-01T16:19:28.513Z,76.29
2022-10-01T16:22:28.100Z,76.76
2022-10-01T16:25:01.094Z,76.72
2022-10-01T16:27:47.077Z,76.16
2022-10-01T16:30:29.701Z,76.62
2022-10-01T16:32:59.200Z,76.78
2022-10-01T16:35:28.825Z,76.82
2022-10-01T16:37:57.903Z,76.42
2022-10-01T16:40:30.779Z,77.01
2022-10-01T16:43:00.850Z,76.75
2022-10-01T16:45:32.603Z,76.66
2022-10-01T16:47:59.962Z,76.58
2022-10-01T16:50:26.598Z,76.63
2022-10-01T16:52:54.502Z,76.73
2022-10-01T16:55:32.330Z,76.63
2022-10-01T16:57:58.947Z,76.60
2022-10-01T17:00:26.715Z,76.14
2022-10-01T17:02:54.565Z,76.22
2022-10-01T17:05:25.296Z,76.42
2022-10-01T17:07:52.939Z,76.18
2022-10-01T17:10:22.480Z,76.22
2022-10-01T17:12:49.234Z,75.98
2022-10-01T17:15:18.811Z,76.21
2022-10-01T17:17:46.613Z,76.03
2022-10-01T17:20:13.552Z,76.17
2022-10-01T17:22:40.268Z,76.41
2022-10-01T17:25:07.526Z,76.08
2022-10-01T17:27:33.991Z,76.44
2022-10-01T17:30:00.454Z,76.79
2022-10-01T17:32:27.079Z,76.90
2022-10-01T17:34:54.383Z,76.93
2022-10-01T17:37:23.829Z,76.93
2022-10-01T17:39:50.733Z,76.75
2022-10-01T17:42:18.052Z,76.80
2022-10-01T17:44:44.871Z,76.79
2022-10-01T17:47:11.318Z,76.91
2022-10-01T17:49:37.779Z,76.66
2022-10-01T17:52:05.640Z,76.64
2022-10-01T17:54:33.236Z,76.39
2022-10-01T17:56:59.728Z,76.57
2022-10-01T17:59:26.198Z,76.62
2022-10-01T18:01:53.218Z,76.69
2022-10-01T18:04:19.758Z,76.36
2022-10-01T18:06:49.004Z,76.39
2022-10-01T18:09:15.827Z,76.26
2022-10-01T18:11:42.387Z,76.41
2022-10-01T18:14:09.071Z,76.39
2022-10-01T18:16:35.878Z,75.35
2022-10-01T18:21:51.074Z,75.09
2022-10-01T18:24:18.256Z,75.01
2022-10-01T18:26:45.869Z,74.72
2022-10-01T18:29:19.373Z,74.51
2022-10-01T18:31:46.628Z,74.37
2022-10-01T18:34:38.559Z,73.69
2022-10-01T18:37:06.962Z,73.37
2022-10-01T18:39:53.210Z,73.36
2022-10-01T18:42:27.168Z,73.34
2022-10-01T18:44:59.501Z,73.57
2022-10-01T18:47:39.334Z,73.88
2022-10-01T18:50:24.347Z,73.98
2022-10-01T18:53:32.645Z,74.23
2022-10-01T18:56:22.473Z,74.43
2022-10-01T18:59:27.794Z,74.48
2022-10-01T19:02:38.815Z,74.31
2022-10-01T19:05:16.932Z,74.73
2022-10-01T19:08:07.679Z,74.80
2022-10-01T19:10:58.021Z,74.61
2022-10-01T19:13:48.374Z,74.93
2022-10-01T19:16:20.646Z,74.12
2022-10-01T19:18:59.264Z,74.70
2022-10-01T19:21:34.554Z,74.57
2022-10-01T19:24:10.933Z,74.62
2022-10-01T19:27:14.627Z,74.35
2022-10-01T19:30:01.436Z,74.13
2022-10-01T19:32:40.956Z,73.90
2022-10-01T19:35:19.762Z,73.82
2022-10-01T19:37:58.215Z,73.80
2022-10-01T19:40:34.304Z,73.78
2022-10-01T19:43:19.637Z,73.95
2022-10-01T19:46:04.602Z,73.82
2022-10-01T19:48:44.742Z,74.02
2022-10-01T19:51:14.082Z,74.24
2022-10-01T19:53:51.291Z,74.46
2022-10-01T19:56:25.918Z,74.77
2022-10-01T19:58:52.453Z,74.58
2022-10-01T20:01:21.254Z,74.63
2022-10-01T20:03:57.444Z,74.69
2022-10-01T20:06:38.407Z,74.61
2022-10-01T20:09:26.615Z,75.06
2022-10-01T20:12:08.641Z,74.93
2022-10-01T20:15:23.186Z,74.72
2022-10-01T20:18:13.033Z,74.78
2022-10-01T20:21:04.357Z,74.79
2022-10-01T20:23:40.939Z,75.02
2022-10-01T20:26:36.672Z,75.07
2022-10-01T20:29:26.881Z,74.66
2022-10-01T20:32:13.338Z,74.86
2022-10-01T20:35:01.696Z,74.82
2022-10-01T20:37:39.851Z,74.86
2022-10-01T20:40:24.956Z,74.68
2022-10-01T20:42:57.644Z,74.59
2022-10-01T20:45:29.844Z,74.53
2022-10-01T20:48:01.401Z,74.69
2022-10-01T20:50:44.750Z,74.63
2022-10-01T20:53:38.758Z,74.38
2022-10-01T20:56:13.538Z,74.50
2022-10-01T20:58:46.401Z,74.57
2022-10-01T21:01:20.565Z,74.53
2022-10-01T21:03:52.036Z,74.36
2022-10-01T21:06:25.543Z,74.75
2022-10-01T21:09:04.099Z,75.34
2022-10-01T21:11:35.913Z,74.92
2022-10-01T21:14:30.735Z,75.41
2022-10-01T21:17:18.255Z,75.67
2022-10-01T21:20:14.066Z,75.46
2022-10-01T21:23:07.718Z,75.37
2022-10-01T21:25:56.990Z,75.51
2022-10-01T21:28:49.116Z,75.49
2022-10-01T21:32:13.015Z,75.46
2022-10-01T21:34:54.791Z,75.45
2022-10-01T21:37:30.540Z,75.70
2022-10-01T21:40:11.452Z,76.05
2022-10-01T21:42:58.719Z,76.16
2022-10-01T21:45:46.201Z,75.91
2022-10-01T21:48:19.711Z,76.25
2022-10-01T21:50:53.326Z,76.45
2022-10-01T21:53:50.511Z,76.49
2022-10-01T21:56:37.325Z,76.38
2022-10-01T21:59:31.369Z,76.70
2022-10-01T22:02:27.709Z,76.46
2022-10-01T22:05:02.336Z,76.72
2022-10-01T22:07:37.627Z,76.70
2022-10-01T22:10:07.079Z,76.74
2022-10-01T22:12:37.303Z,76.49
2022-10-01T22:15:18.371Z,76.52
2022-10-01T22:17:46.394Z,76.40
2022-10-01T22:20:13.655Z,76.22
2022-10-01T22:22:40.102Z,76.03
2022-10-01T22:25:08.418Z,76.21
2022-10-01T22:27:44.207Z,76.17
2022-10-01T22:30:12.839Z,76.38
2022-10-01T22:32:47.758Z,76.17
2022-10-01T22:35:24.735Z,75.73
2022-10-01T22:37:56.839Z,75.82
2022-10-01T22:40:28.981Z,75.79
2022-10-01T22:43:04.805Z,75.72
2022-10-01T22:45:39.466Z,75.49
2022-10-01T22:48:44.996Z,75.38
2022-10-01T22:51:42.227Z,75.50
2022-10-01T22:54:21.883Z,75.84
2022-10-01T22:56:59.613Z,75.94
2022-10-01T22:59:35.735Z,75.86
2022-10-01T23:02:12.148Z,75.96
2022-10-01T23:04:57.507Z,76.14
2022-10-01T23:07:39.199Z,76.27
2022-10-01T23:10:16.216Z,76.47
2022-10-01T23:13:15.289Z,76.55
2022-10-01T23:15:57.932Z,76.35
2022-10-01T23:18:35.199Z,76.42
2022-10-01T23:21:04.679Z,77.12
2022-10-01T23:23:33.290Z,77.44
2022-10-01T23:26:21.747Z,77.29
2022-10-01T23:29:02.405Z,77.35
2022-10-01T23:31:45.179Z,77.37
2022-10-01T23:34:24.932Z,77.77
2022-10-01T23:37:26.695Z,77.84
2022-10-01T23:40:01.479Z,78.10
2022-10-01T23:43:05.113Z,77.86
2022-10-01T23:45:41.734Z,78.25
2022-10-01T23:48:17.152Z,77.73
2022-10-01T23:50:54.339Z,77.97
2022-10-01T23:53:30.469Z,78.22
2022-10-01T23:56:22.300Z,78.12
2022-10-01T23:58:56.227Z,78.34
